createdAt,value
2022-08-20T00:02:54.485Z,16.90
2022-08-20T00:07:49.413Z,17.00
2022-08-20T00:12:48.615Z,17.00
2022-08-20T00:17:43.071Z,17.00
2022-08-20T00:22:36.637Z,17.00
2022-08-20T00:27:31.570Z,16.90
2022-08-20T00:32:25.180Z,17.00
2022-08-20T00:37:18.615Z,16.90
2022-08-20T00:42:12.425Z,16.80
2022-08-20T00:47:09.330Z,16.80
2022-08-20T00:52:09.200Z,16.70
2022-08-20T00:57:08.385Z,16.70
2022-08-20T01:02:03.505Z,16.60
2022-08-20T01:06:58.760Z,16.60
2022-08-20T01:11:52.230Z,16.70
2022-08-20T01:16:49.431Z,16.80
2022-08-20T01:21:45.846Z,16.70
2022-08-20T01:26:47.457Z,16.70
2022-08-20T01:31:42.828Z,16.70
2022-08-20T01:36:45.586Z,16.50
2022-08-20T01:42:08.571Z,16.50
2022-08-20T01:47:22.934Z,16.50
2022-08-20T01:52:25.914Z,16.50
2022-08-20T01:57:26.824Z,16.40
2022-08-20T02:02:20.796Z,16.50
2022-08-20T02:07:19.104Z,16.50
2022-08-20T02:12:14.367Z,16.60
2022-08-20T02:17:09.386Z,16.50
2022-08-20T02:22:13.547Z,16.50
2022-08-20T02:27:07.122Z,16.50
2022-08-20T02:32:32.396Z,16.60
2022-08-20T02:37:18.435Z,16.60
2022-08-20T02:42:12.458Z,16.60
2022-08-20T02:47:07.415Z,16.60
2022-08-20T02:52:01.017Z,16.60
2022-08-20T02:56:55.984Z,16.60
2022-08-20T03:01:56.660Z,16.60
2022-08-20T03:06:54.106Z,16.60
2022-08-20T03:11:47.424Z,16.60
2022-08-20T03:16:43.107Z,16.50
2022-08-20T03:21:36.806Z,16.50
2022-08-20T03:26:30.137Z,16.50
2022-08-20T03:31:24.364Z,16.50
2022-08-20T03:36:20.802Z,16.50
2022-08-20T03:41:21.345Z,16.40
2022-08-20T03:46:22.031Z,16.40
2022-08-20T03:51:18.627Z,16.30
2022-08-20T03:56:11.994Z,16.30
2022-08-20T04:01:32.101Z,16.30
2022-08-20T04:06:23.050Z,16.30
2022-08-20T04:11:16.384Z,16.20
2022-08-20T04:16:11.752Z,16.10
2022-08-20T04:21:08.169Z,16.20
2022-08-20T04:26:02.923Z,16.20
2022-08-20T04:30:58.799Z,16.20
2022-08-20T04:35:52.100Z,16.20
2022-08-20T04:40:58.205Z,16.20
2022-08-20T04:45:54.088Z,16.10
2022-08-20T04:50:48.350Z,16.10
2022-08-20T04:55:44.181Z,16.10
2022-08-20T05:00:37.863Z,16.10
2022-08-20T05:05:35.049Z,16.20
2022-08-20T05:10:29.791Z,16.30
2022-08-20T05:15:24.567Z,16.30
2022-08-20T05:20:19.784Z,16.40
2022-08-20T05:25:14.547Z,16.50
2022-08-20T05:30:13.567Z,16.50
2022-08-20T05:35:10.799Z,16.50
2022-08-20T05:40:10.347Z,16.50
2022-08-20T05:45:10.975Z,16.60
2022-08-20T05:50:06.532Z,16.60
2022-08-20T05:55:00.131Z,16.70
2022-08-20T05:59:53.958Z,16.70
2022-08-20T06:04:48.659Z,16.60
2022-08-20T06:09:49.857Z,16.60
2022-08-20T06:14:43.436Z,16.70
2022-08-20T06:19:38.521Z,16.80
2022-08-20T06:24:33.592Z,17.00
2022-08-20T06:29:28.292Z,17.00
2022-08-20T06:34:21.741Z,17.00
2022-08-20T06:39:16.663Z,17.00
2022-08-20T06:44:11.408Z,17.10
2022-08-20T06:49:05.997Z,17.10
2022-08-20T06:53:59.781Z,17.20
2022-08-20T06:58:53.126Z,17.30
2022-08-20T07:03:55.483Z,17.40
2022-08-20T07:08:49.465Z,17.40
2022-08-20T07:13:42.865Z,17.60
2022-08-20T07:18:36.435Z,17.70
2022-08-20T07:23:31.826Z,17.90
2022-08-20T07:28:28.932Z,18.10
2022-08-20T07:33:22.704Z,18.30
2022-08-20T07:38:24.029Z,18.60
2022-08-20T07:43:19.190Z,18.80
2022-08-20T07:48:27.902Z,18.90
2022-08-20T07:53:26.956Z,18.90
2022-08-20T07:58:23.998Z,18.90
2022-08-20T08:03:39.913Z,18.80
2022-08-20T08:08:43.648Z,18.60
2022-08-20T08:13:42.393Z,18.60
2022-08-20T08:18:42.136Z,18.70
2022-08-20T08:23:36.211Z,18.80
2022-08-20T08:28:30.647Z,18.80
2022-08-20T08:33:29.427Z,18.70
2022-08-20T08:38:24.268Z,18.70
2022-08-20T08:43:21.283Z,18.80
2022-08-20T08:48:18.811Z,18.90
2022-08-20T08:53:23.825Z,19.10
2022-08-20T08:58:17.608Z,19.30
2022-08-20T09:03:18.548Z,19.50
2022-08-20T09:08:19.426Z,19.40
2022-08-20T09:13:12.907Z,19.20
2022-08-20T09:18:06.396Z,19.00
2022-08-20T09:22:59.884Z,18.90
2022-08-20T09:27:54.727Z,18.90
2022-08-20T09:32:48.150Z,19.10
2022-08-20T09:37:41.635Z,19.60
2022-08-20T09:42:41.437Z,20.20
2022-08-20T09:47:36.658Z,20.50
2022-08-20T09:52:40.225Z,20.50
2022-08-20T09:57:40.099Z,20.20
2022-08-20T10:03:00.892Z,19.80
2022-08-20T10:07:55.861Z,19.60
2022-08-20T10:12:54.600Z,19.50
2022-08-20T10:18:04.426Z,19.50
2022-08-20T10:22:59.930Z,19.60
2022-08-20T10:27:53.866Z,19.60
2022-08-20T10:32:47.380Z,19.60
2022-08-20T10:37:42.255Z,19.60
2022-08-20T10:42:40.449Z,19.70
2022-08-20T10:47:35.766Z,19.80
2022-08-20T10:52:29.916Z,19.90
2022-08-20T10:57:29.372Z,19.90
2022-08-20T11:02:24.653Z,20.20
2022-08-20T11:07:21.877Z,20.40
2022-08-20T11:12:37.175Z,20.50
2022-08-20T11:17:33.800Z,20.60
2022-08-20T11:22:30.638Z,20.80
2022-08-20T11:27:26.659Z,20.80
2022-08-20T11:32:22.518Z,20.70
2022-08-20T11:37:18.566Z,20.60
2022-08-20T11:42:12.971Z,20.50
2022-08-20T11:47:08.407Z,20.50
2022-08-20T11:56:58.910Z,20.90
2022-08-20T12:07:11.181Z,21.80
2022-08-20T12:42:58.817Z,21.00
2022-08-20T12:47:52.207Z,20.80
2022-08-20T12:58:22.282Z,20.60
2022-08-20T13:03:16.071Z,20.60
2022-08-20T13:08:12.148Z,20.70
2022-08-20T13:13:05.823Z,20.90
2022-08-20T13:18:04.433Z,21.10
2022-08-20T13:22:58.476Z,21.10
2022-08-20T13:27:57.134Z,21.20
2022-08-20T13:32:50.628Z,21.30
2022-08-20T13:37:45.529Z,21.20
2022-08-20T13:42:40.051Z,21.10
2022-08-20T13:47:38.200Z,21.10
2022-08-20T13:52:32.055Z,21.10
2022-08-20T13:57:28.017Z,21.00
2022-08-20T14:02:22.546Z,20.80
2022-08-20T14:07:19.125Z,20.50
2022-08-20T14:12:14.268Z,20.40
2022-08-20T14:17:21.901Z,20.20
2022-08-20T14:22:17.443Z,19.90
2022-08-20T14:27:10.831Z,19.70
2022-08-20T14:32:05.672Z,19.40
2022-08-20T14:37:13.014Z,19.40
2022-08-20T14:42:07.182Z,19.30
2022-08-20T14:47:13.702Z,19.30
2022-08-20T14:52:08.975Z,19.30
2022-08-20T15:02:15.906Z,19.50
2022-08-20T15:17:32.322Z,19.80
2022-08-20T15:27:27.419Z,19.80
2022-08-20T15:32:22.362Z,19.80
2022-08-20T15:37:19.852Z,19.60
2022-08-20T16:18:36.270Z,19.60
2022-08-20T16:59:35.612Z,19.70
2022-08-20T17:09:31.337Z,19.80
2022-08-20T17:14:27.172Z,19.90
2022-08-20T17:19:26.324Z,19.90
2022-08-20T17:24:28.326Z,20.00
2022-08-20T17:29:25.679Z,19.90
2022-08-20T17:34:22.429Z,20.00
2022-08-20T17:39:20.388Z,19.90
2022-08-20T17:44:23.871Z,19.80
2022-08-20T17:49:22.003Z,19.70
2022-08-20T17:54:27.220Z,19.60
2022-08-20T18:00:01.158Z,19.50
2022-08-20T18:04:48.230Z,19.40
2022-08-20T18:09:57.251Z,19.20
2022-08-20T18:15:04.141Z,19.10
2022-08-20T18:20:25.158Z,18.90
2022-08-20T18:25:36.564Z,18.80
2022-08-20T18:30:34.685Z,18.80
2022-08-20T18:35:38.742Z,18.80
2022-08-20T18:40:41.579Z,18.70
2022-08-20T18:45:37.979Z,18.70
2022-08-20T18:50:45.500Z,18.60
2022-08-20T18:55:42.697Z,18.60
2022-08-20T19:00:43.172Z,18.60
2022-08-20T19:05:48.494Z,18.50
2022-08-20T19:16:03.398Z,18.30
2022-08-20T19:21:01.611Z,18.30
2022-08-20T19:31:16.912Z,18.20
2022-08-20T19:36:14.678Z,18.30
2022-08-20T19:46:27.429Z,18.20
2022-08-20T19:51:30.784Z,18.00
2022-08-20T19:56:29.306Z,18.00
2022-08-20T20:22:24.608Z,17.70
2022-08-20T22:11:24.954Z,17.20
2022-08-20T22:32:51.990Z,17.20
